Main page
METAR-TAF:

METAR-TAF

Airports :

Léopold Sédar Senghor International Airport

Dakar, Senegal

latitude: 14-44N, longitude: 017-30W, elevation: 27 m

Current weather observation

The report was made 2 hours and 52 minutes ago, at 18:00 UTC
Wind 8 kt from the Northwest
Temperature 22°C
Humidity 83%
Pressure 1009 hPa
Visibility 10 km or more
Broken clouds at a height of 1000 ft

METAR: GOOY 211800Z 32008KT 9999 BKN010 22/19 Q1009

Time: 20:52 (20:52 UTC)

Forecast

The report was made 3 hours and 22 minutes ago, at 17:30 UTC
Forecast valid from 21 at 18 UTC to 22 at 24 UTC
Wind 12 kt from the North/Northwest
Visibility: 8000 m
Scattered clouds at a height of 1000 ft

TAF: GOOY 211730Z 2118/2224 34012KT 8000 SCT010

Weather observations and forecasts of more than 4000 airports (METAR and TAF reports).

The available stations are represented by yellow and red dots on the map.

Hover mouse over dot to see the name of the station.

Then click to see weather observations and forecasts.

To change the map : click on the green buttons with a black cross to zoom in, on the green button with a dash to zoom out, or on the green arrows for adjacent maps.


METAR-TAF: